»·PEaware :: N544JH KSGU-KASE

N544JH :: KSGU-KASE

FLIGHT INFORMATION

Flight Status: Arrived
Operator: Privately registered:
United States
More flights under this callsign
Pilot: Merv A. (1555)
Aircraft: Unknown
(B60T)
More flights by this aircraft type
Origin: KSGU St George Mun
United States
Destination: KASE Aspen-Pitkin Co/Sardy
United States
More flights between these airports :: More routes between these airports
Route: BCE V8 JNC V134 DBL
File this flight plan on PilotEdge
Remarks: RMK / custom time
Altitude:
(Current/Filed)
21,000ft
Speed:
(Current/Filed)
255kts
Departed: 24-Aug-19 11:57 PM
Arrived: 25-Aug-19 01:25 AM
Distance/Time
Traveled:
342nm/1:28
Distance/Time
To Go:
Arrived

Flight Plot

Page will automatically refresh every two minutes.


Map Options




Map Legend


Flown Route
Filed Route
Departure Airport
Arrival Airport
Navaid (VOR, NDB)
Fix

Horizontal Profiles

Position Reports

Time Latitude Longitude Heading Altitude Ground
Speed
24-Aug-19 23:48 37.038522 -113.505630 113 2843ft 0kts
24-Aug-19 23:49 37.039422 -113.505034 321 2843ft 7kts
24-Aug-19 23:50 37.041367 -113.505491 22 2843ft 10kts
24-Aug-19 23:51 37.044173 -113.503999 23 2843ft 10kts
24-Aug-19 23:52 37.046969 -113.502516 23 2843ft 9kts
24-Aug-19 23:53 37.047704 -113.503209 293 2843ft 0kts
24-Aug-19 23:54 37.047989 -113.504076 291 2843ft 7kts
24-Aug-19 23:55 37.047675 -113.504382 201 2843ft 0kts
24-Aug-19 23:56 37.022769 -113.517304 203 3678ft 143kts
24-Aug-19 23:57 36.999147 -113.493495 63 5327ft 130kts
24-Aug-19 23:58 37.022208 -113.453118 52 6922ft 180kts
24-Aug-19 23:59 37.054768 -113.397127 53 7952ft 208kts
25-Aug-19 00:00 37.088641 -113.339536 53 9472ft 196kts
25-Aug-19 00:01 37.120102 -113.286057 50 11258ft 185kts
25-Aug-19 00:02 37.150209 -113.234844 50 13068ft 178kts
25-Aug-19 00:03 37.178956 -113.185883 50 14952ft 171kts
25-Aug-19 00:04 37.208641 -113.135236 51 16301ft 189kts
25-Aug-19 00:05 37.240408 -113.080875 51 17508ft 195kts
25-Aug-19 00:06 37.272785 -113.025402 51 18710ft 196kts
25-Aug-19 00:07 37.304889 -112.970339 50 19844ft 198kts
25-Aug-19 00:08 37.337556 -112.914221 50 20743ft 200kts
25-Aug-19 00:09 37.371556 -112.855790 50 21284ft 226kts
25-Aug-19 00:10 37.410182 -112.789083 50 21285ft 240kts
25-Aug-19 00:11 37.449883 -112.720429 50 21290ft 244kts
25-Aug-19 00:12 37.490224 -112.650557 50 21300ft 248kts
25-Aug-19 00:13 37.531193 -112.579470 50 21314ft 254kts
25-Aug-19 00:14 37.572680 -112.507294 50 21333ft 256kts
25-Aug-19 00:15 37.614721 -112.434013 50 21355ft 257kts
25-Aug-19 00:16 37.656462 -112.361096 50 21377ft 257kts
25-Aug-19 00:17 37.697291 -112.286480 55 21397ft 259kts
25-Aug-19 00:18 37.733893 -112.207545 55 21406ft 260kts
25-Aug-19 00:19 37.770487 -112.128512 55 21406ft 261kts
25-Aug-19 00:20 37.807039 -112.049381 55 21401ft 261kts
25-Aug-19 00:21 37.843738 -111.969734 56 21391ft 262kts
25-Aug-19 00:22 37.880462 -111.889834 55 21377ft 262kts
25-Aug-19 00:23 37.917188 -111.809731 55 21363ft 262kts
25-Aug-19 00:24 37.953923 -111.729418 55 21348ft 263kts
25-Aug-19 00:25 37.990461 -111.649340 56 21334ft 262kts
25-Aug-19 00:26 38.026842 -111.569392 55 21320ft 263kts
25-Aug-19 00:27 38.063361 -111.488946 55 21308ft 263kts
25-Aug-19 00:28 38.100005 -111.408016 55 21325ft 262kts
25-Aug-19 00:29 38.136231 -111.327810 55 21319ft 263kts
25-Aug-19 00:30 38.172761 -111.246729 55 21306ft 263kts
25-Aug-19 00:31 38.209169 -111.165712 55 21296ft 263kts
25-Aug-19 00:32 38.245335 -111.085032 55 21287ft 263kts
25-Aug-19 00:33 38.281670 -111.003769 55 21245ft 265kts
25-Aug-19 00:34 38.318086 -110.922106 55 21216ft 265kts
25-Aug-19 00:35 38.354519 -110.840201 55 21202ft 264kts
25-Aug-19 00:36 38.390635 -110.758804 55 21188ft 264kts
25-Aug-19 00:37 38.425093 -110.676009 61 21183ft 266kts
25-Aug-19 00:38 38.454935 -110.590015 61 21169ft 265kts
25-Aug-19 00:39 38.484856 -110.503643 61 21155ft 265kts
25-Aug-19 00:40 38.514846 -110.416825 61 21119ft 266kts
25-Aug-19 00:41 38.544626 -110.330345 61 21109ft 265kts
25-Aug-19 00:42 38.574268 -110.244031 61 21099ft 266kts
25-Aug-19 00:43 38.603909 -110.157434 61 21091ft 266kts
25-Aug-19 00:44 38.633516 -110.070687 62 21080ft 266kts
25-Aug-19 00:45 38.663117 -109.983686 61 21071ft 266kts
25-Aug-19 00:46 38.692588 -109.896821 61 21065ft 266kts
25-Aug-19 00:47 38.722038 -109.809782 62 21059ft 267kts
25-Aug-19 00:48 38.751479 -109.722477 61 21058ft 266kts
25-Aug-19 00:49 38.780879 -109.635059 61 21060ft 267kts
25-Aug-19 00:50 38.810163 -109.547698 62 21065ft 267kts
25-Aug-19 00:51 38.839483 -109.459947 61 21073ft 267kts
25-Aug-19 00:52 38.868764 -109.372056 61 21084ft 267kts
25-Aug-19 00:53 38.897964 -109.284136 62 21090ft 268kts
25-Aug-19 00:54 38.927148 -109.195972 61 21099ft 268kts
25-Aug-19 00:55 38.956315 -109.107603 62 21106ft 268kts
25-Aug-19 00:56 38.985483 -109.018951 62 21109ft 269kts
25-Aug-19 00:57 39.014601 -108.930167 62 21110ft 269kts
25-Aug-19 00:58 39.043482 -108.841831 62 21103ft 270kts
25-Aug-19 00:59 39.068279 -108.750642 70 21104ft 273kts
25-Aug-19 01:00 39.088083 -108.655864 70 21101ft 273kts
25-Aug-19 01:01 39.107760 -108.561108 70 21099ft 273kts
25-Aug-19 01:02 39.127332 -108.466387 70 21099ft 274kts
25-Aug-19 01:03 39.146907 -108.371232 70 21103ft 274kts
25-Aug-19 01:04 39.166433 -108.275853 70 21114ft 274kts
25-Aug-19 01:05 39.185785 -108.180919 70 21124ft 275kts
25-Aug-19 01:06 39.205134 -108.085533 70 21136ft 275kts
25-Aug-19 01:07 39.224359 -107.990317 70 21172ft 275kts
25-Aug-19 01:08 39.243608 -107.894595 70 21175ft 276kts
25-Aug-19 01:09 39.262105 -107.801998 69 21194ft 259kts
25-Aug-19 01:10 39.280043 -107.712066 69 21114ft 255kts
25-Aug-19 01:11 39.297818 -107.622696 70 19841ft 258kts
25-Aug-19 01:12 39.315037 -107.535431 71 18544ft 245kts
25-Aug-19 01:13 39.331530 -107.451527 71 17526ft 237kts
25-Aug-19 01:14 39.347692 -107.369038 71 16331ft 237kts
25-Aug-19 01:15 39.363535 -107.287754 72 15020ft 223kts
25-Aug-19 01:16 39.378690 -107.211273 71 13622ft 217kts
25-Aug-19 01:17 39.390193 -107.135875 92 12256ft 220kts
25-Aug-19 01:18 39.372584 -107.061818 114 11109ft 207kts
25-Aug-19 01:19 39.347991 -107.003090 120 10382ft 181kts
25-Aug-19 01:20 39.323329 -106.949307 133 9384ft 158kts
25-Aug-19 01:21 39.294813 -106.910653 124 8541ft 142kts
25-Aug-19 01:22 39.267763 -106.888619 166 8381ft 116kts
25-Aug-19 01:23 39.238068 -106.875906 162 7902ft 113kts
25-Aug-19 01:24 39.223237 -106.868345 69 7740ft 6kts
25-Aug-19 01:26 39.223440 -106.867936 19 7740ft 0kts
25-Aug-19 01:27 39.224313 -106.868267 338 7740ft 8kts
25-Aug-19 01:28 39.225978 -106.868484 14 7740ft 2kts
25-Aug-19 01:29 39.226294 -106.868914 248 7740ft 0kts
25-Aug-19 01:30 39.226294 -106.868913 248 7739ft 0kts

Navigation Log

Ident Type
Flight plan parsing failed, navigation log unavailable